EGNR/CEG METAR and TAF weather

Enter ICAO airport designator
Station Type Date Time Source
EGNR METAR 2020/02/28 20:50 UTC NOAA

EGNR 282050Z 16009KT 9999 SCT014 BKN025 10/09 Q0988


Station Type Date Time Source
EGNR Decoded METAR 2020/02/28 20:50 UTC NOAA

Hawarden, United Kingdom (EGNR) 53-10N 002-59W 0M
Feb 28, 2020 - 03:50 PM EST / 2020.02.28 2050 UTC
Wind: from the SSE (160 degrees) at 10 MPH (9 KT):0
Visibility: greater than 7 mile(s):0
Sky conditions: mostly cloudy
Temperature: 50 F (10 C)
Dew Point: 48 F (9 C)
Relative Humidity: 93%
Pressure (altimeter): 29.18 in. Hg (0988 hPa)
ob: EGNR 282050Z 16009KT 9999 SCT014 BKN025 10/09 Q0988
cycle: 21

Station Type Date Time Source
EGNR TAF 2016/01/23 12:00 UTC NOAA

TAF EGNR 231059Z 2312/2319 15009KT 9999 FEW020
BECMG 2316/2319 BKN014
TEMPO 2317/2319 6000 RA BKN008

Example: see airport list